Terminal Aerodrome Forecast
Issued by NWS Cleveland, OH

Home | Current Version | Previous Version | Text Only | Print | Product List | Glossary On
Versions: 1 2 3 4 5 6 7 8 9 10 11 12 13 14 15 16 17 18 19 20
000
FTUS41 KCLE 041425 AAA
TAFYNG
TAF AMD
KYNG 041425Z 0414/0512 18005KT P6SM VCSH SCT040
      TEMPO 0415/0417 5SM -SHRA BR BKN040
     FM041900 20006KT P6SM VCTS BKN040CB
     FM050000 10003KT P6SM SCT050 BKN250
     FM050700 13003KT 4SM BR SCT120=

USA.gov is the U.S. government's official web portal to all federal, state and local government web resources and services.